Terminal Aerodrome Forecast
Issued by NWS Sterling, VA

Current Version | Previous Version | Graphics & Text | Print | Product List | Glossary On
Versions: 1 2 3 4 5 6 7 8 9 10 11 12 13 14 15 16 17 18 19 20 21 22 23 24 25
000
FTUS41 KLWX 210533
TAFIAD
TAF
KIAD 210533Z 2106/2212 20011KT P6SM SCT250
     FM211000 20009KT P6SM BKN012
     FM211400 20010G17KT P6SM BKN080
     FM212000 21012G19KT P6SM SCT070
     FM220000 21008KT P6SM VCSH BKN060
     FM220500 36009KT P6SM VCSH BKN030=

USA.gov is the U.S. government's official web portal to all federal, state and local government web resources and services.